Terminal Aerodrome Forecast
Issued by NWS Tulsa, OK

Home | Current Version | Previous Version | Text Only | Print | Product List | Glossary On
Versions: 1 2 3 4 5 6 7 8 9 10 11 12 13
000
FTUS44 KTSA 032336
TAFTUL
TAF
KTUL 032336Z 0400/0424 16012KT P6SM FEW060 SCT250
     FM040100 16006KT P6SM FEW250
     FM041600 19010KT P6SM FEW050=

USA.gov is the U.S. government's official web portal to all federal, state and local government web resources and services.